sensor_id;sensor_type;location;lat;lon;timestamp;P1;durP1;ratioP1;P2;durP2;ratioP2
23614;SDS011;11985;49.404;7.734;2024-01-15T00:01:41;67.75;;;16.63;;
23614;SDS011;11985;49.404;7.734;2024-01-15T00:06:44;64.95;;;17.40;;
23614;SDS011;11985;49.404;7.734;2024-01-15T00:11:46;70.22;;;16.60;;
23614;SDS011;11985;49.404;7.734;2024-01-15T00:16:48;73.10;;;17.45;;
23614;SDS011;11985;49.404;7.734;2024-01-15T00:21:52;77.15;;;17.50;;
23614;SDS011;11985;49.404;7.734;2024-01-15T00:26:54;53.83;;;14.98;;
23614;SDS011;11985;49.404;7.734;2024-01-15T00:31:55;65.00;;;16.20;;
23614;SDS011;11985;49.404;7.734;2024-01-15T00:36:58;55.63;;;14.32;;
23614;SDS011;11985;49.404;7.734;2024-01-15T00:42:00;60.55;;;16.17;;
23614;SDS011;11985;49.404;7.734;2024-01-15T00:47:01;39.22;;;10.20;;
23614;SDS011;11985;49.404;7.734;2024-01-15T00:52:05;58.58;;;16.73;;
23614;SDS011;11985;49.404;7.734;2024-01-15T00:57:07;39.83;;;11.37;;
23614;SDS011;11985;49.404;7.734;2024-01-15T01:02:08;61.72;;;15.63;;
23614;SDS011;11985;49.404;7.734;2024-01-15T01:07:11;52.60;;;14.07;;
23614;SDS011;11985;49.404;7.734;2024-01-15T01:12:13;55.15;;;14.32;;
23614;SDS011;11985;49.404;7.734;2024-01-15T01:17:14;64.93;;;15.07;;
23614;SDS011;11985;49.404;7.734;2024-01-15T01:22:17;57.47;;;14.65;;
23614;SDS011;11985;49.404;7.734;2024-01-15T01:27:19;54.60;;;14.80;;
23614;SDS011;11985;49.404;7.734;2024-01-15T01:32:20;64.32;;;15.15;;
23614;SDS011;11985;49.404;7.734;2024-01-15T01:37:23;54.03;;;14.98;;
23614;SDS011;11985;49.404;7.734;2024-01-15T01:42:25;50.83;;;14.18;;
23614;SDS011;11985;49.404;7.734;2024-01-15T01:47:27;58.88;;;14.05;;
23614;SDS011;11985;49.404;7.734;2024-01-15T01:52:30;57.95;;;15.27;;
23614;SDS011;11985;49.404;7.734;2024-01-15T01:57:32;67.03;;;16.58;;
23614;SDS011;11985;49.404;7.734;2024-01-15T02:02:35;48.47;;;13.75;;
23614;SDS011;11985;49.404;7.734;2024-01-15T02:07:38;61.47;;;14.82;;
23614;SDS011;11985;49.404;7.734;2024-01-15T02:12:39;63.35;;;16.73;;
23614;SDS011;11985;49.404;7.734;2024-01-15T02:17:57;75.68;;;17.98;;
23614;SDS011;11985;49.404;7.734;2024-01-15T02:23:03;72.07;;;15.68;;
23614;SDS011;11985;49.404;7.734;2024-01-15T02:28:09;69.47;;;17.42;;
23614;SDS011;11985;49.404;7.734;2024-01-15T02:33:11;84.68;;;18.77;;
23614;SDS011;11985;49.404;7.734;2024-01-15T02:38:14;60.97;;;13.30;;
23614;SDS011;11985;49.404;7.734;2024-01-15T02:43:16;62.35;;;16.30;;
23614;SDS011;11985;49.404;7.734;2024-01-15T02:48:19;71.13;;;16.15;;
23614;SDS011;11985;49.404;7.734;2024-01-15T02:53:22;65.43;;;15.77;;
23614;SDS011;11985;49.404;7.734;2024-01-15T02:58:23;67.13;;;16.95;;
23614;SDS011;11985;49.404;7.734;2024-01-15T03:03:25;69.72;;;17.45;;
23614;SDS011;11985;49.404;7.734;2024-01-15T03:08:28;66.75;;;16.90;;
23614;SDS011;11985;49.404;7.734;2024-01-15T03:13:29;76.40;;;19.45;;
23614;SDS011;11985;49.404;7.734;2024-01-15T03:18:31;62.72;;;16.48;;
23614;SDS011;11985;49.404;7.734;2024-01-15T03:23:34;60.22;;;15.77;;
23614;SDS011;11985;49.404;7.734;2024-01-15T03:28:35;60.20;;;14.88;;
23614;SDS011;11985;49.404;7.734;2024-01-15T03:33:37;50.13;;;13.60;;
23614;SDS011;11985;49.404;7.734;2024-01-15T03:38:40;71.82;;;17.95;;
23614;SDS011;11985;49.404;7.734;2024-01-15T03:43:42;67.95;;;15.77;;
23614;SDS011;11985;49.404;7.734;2024-01-15T03:48:44;56.55;;;17.40;;
23614;SDS011;11985;49.404;7.734;2024-01-15T03:53:47;76.30;;;16.45;;
23614;SDS011;11985;49.404;7.734;2024-01-15T03:58:49;59.95;;;15.65;;
23614;SDS011;11985;49.404;7.734;2024-01-15T04:03:50;53.00;;;14.93;;
23614;SDS011;11985;49.404;7.734;2024-01-15T04:08:53;58.88;;;14.75;;
23614;SDS011;11985;49.404;7.734;2024-01-15T04:13:55;45.20;;;13.18;;
23614;SDS011;11985;49.404;7.734;2024-01-15T04:18:56;49.03;;;13.95;;
23614;SDS011;11985;49.404;7.734;2024-01-15T04:23:59;42.60;;;14.07;;
23614;SDS011;11985;49.404;7.734;2024-01-15T04:29:01;43.90;;;13.65;;
23614;SDS011;11985;49.404;7.734;2024-01-15T04:34:02;51.58;;;15.25;;
23614;SDS011;11985;49.404;7.734;2024-01-15T04:39:05;60.22;;;15.15;;
23614;SDS011;11985;49.404;7.734;2024-01-15T04:44:07;61.25;;;16.05;;
23614;SDS011;11985;49.404;7.734;2024-01-15T04:49:09;48.65;;;13.63;;
23614;SDS011;11985;49.404;7.734;2024-01-15T04:54:12;54.67;;;15.75;;
23614;SDS011;11985;49.404;7.734;2024-01-15T04:59:17;58.13;;;17.02;;
23614;SDS011;11985;49.404;7.734;2024-01-15T05:04:19;50.83;;;14.45;;
23614;SDS011;11985;49.404;7.734;2024-01-15T05:09:22;74.18;;;19.45;;
23614;SDS011;11985;49.404;7.734;2024-01-15T05:14:23;62.08;;;16.67;;
23614;SDS011;11985;49.404;7.734;2024-01-15T05:19:25;64.47;;;17.52;;
23614;SDS011;11985;49.404;7.734;2024-01-15T05:24:28;60.00;;;16.98;;
23614;SDS011;11985;49.404;7.734;2024-01-15T05:29:29;54.88;;;16.83;;
23614;SDS011;11985;49.404;7.734;2024-01-15T05:34:31;43.83;;;14.63;;
23614;SDS011;11985;49.404;7.734;2024-01-15T05:39:34;60.60;;;17.58;;
23614;SDS011;11985;49.404;7.734;2024-01-15T05:44:35;57.08;;;18.40;;
23614;SDS011;11985;49.404;7.734;2024-01-15T05:49:37;56.05;;;17.60;;
23614;SDS011;11985;49.404;7.734;2024-01-15T05:54:40;60.90;;;15.98;;
23614;SDS011;11985;49.404;7.734;2024-01-15T05:59:42;60.08;;;17.58;;
23614;SDS011;11985;49.404;7.734;2024-01-15T06:04:45;63.57;;;17.90;;
23614;SDS011;11985;49.404;7.734;2024-01-15T06:09:48;57.75;;;17.70;;
23614;SDS011;11985;49.404;7.734;2024-01-15T06:14:50;61.70;;;19.35;;
23614;SDS011;11985;49.404;7.734;2024-01-15T06:19:52;55.65;;;18.95;;
23614;SDS011;11985;49.404;7.734;2024-01-15T06:24:55;58.38;;;15.45;;
23614;SDS011;11985;49.404;7.734;2024-01-15T06:29:56;54.63;;;17.52;;
23614;SDS011;11985;49.404;7.734;2024-01-15T06:34:58;52.67;;;16.05;;
23614;SDS011;11985;49.404;7.734;2024-01-15T06:40:01;54.30;;;17.27;;
23614;SDS011;11985;49.404;7.734;2024-01-15T06:45:06;54.08;;;17.70;;
23614;SDS011;11985;49.404;7.734;2024-01-15T06:50:08;47.42;;;16.02;;
23614;SDS011;11985;49.404;7.734;2024-01-15T06:55:12;48.67;;;17.27;;
23614;SDS011;11985;49.404;7.734;2024-01-15T07:00:14;39.40;;;13.68;;
23614;SDS011;11985;49.404;7.734;2024-01-15T07:05:17;31.30;;;11.50;;
23614;SDS011;11985;49.404;7.734;2024-01-15T07:10:20;46.38;;;16.48;;
23614;SDS011;11985;49.404;7.734;2024-01-15T07:15:22;50.63;;;16.00;;
23614;SDS011;11985;49.404;7.734;2024-01-15T07:20:24;53.40;;;16.83;;
23614;SDS011;11985;49.404;7.734;2024-01-15T07:25:26;43.72;;;15.35;;
23614;SDS011;11985;49.404;7.734;2024-01-15T07:30:28;45.22;;;16.50;;
23614;SDS011;11985;49.404;7.734;2024-01-15T07:35:29;53.35;;;16.85;;
23614;SDS011;11985;49.404;7.734;2024-01-15T07:40:32;55.38;;;17.52;;
23614;SDS011;11985;49.404;7.734;2024-01-15T07:45:34;50.83;;;17.40;;
23614;SDS011;11985;49.404;7.734;2024-01-15T07:50:36;52.35;;;15.85;;
23614;SDS011;11985;49.404;7.734;2024-01-15T07:55:39;50.70;;;17.00;;
23614;SDS011;11985;49.404;7.734;2024-01-15T08:00:40;50.45;;;17.13;;
23614;SDS011;11985;49.404;7.734;2024-01-15T08:05:42;51.80;;;17.17;;
23614;SDS011;11985;49.404;7.734;2024-01-15T08:10:45;52.70;;;18.67;;
23614;SDS011;11985;49.404;7.734;2024-01-15T08:15:46;52.97;;;16.33;;
23614;SDS011;11985;49.404;7.734;2024-01-15T08:20:48;57.50;;;17.40;;
23614;SDS011;11985;49.404;7.734;2024-01-15T08:25:52;55.88;;;17.55;;
23614;SDS011;11985;49.404;7.734;2024-01-15T08:30:54;47.50;;;16.27;;
23614;SDS011;11985;49.404;7.734;2024-01-15T08:35:55;56.38;;;18.38;;
23614;SDS011;11985;49.404;7.734;2024-01-15T08:40:58;53.15;;;16.17;;
23614;SDS011;11985;49.404;7.734;2024-01-15T08:46:00;44.60;;;16.60;;
23614;SDS011;11985;49.404;7.734;2024-01-15T08:51:02;53.47;;;17.40;;
23614;SDS011;11985;49.404;7.734;2024-01-15T08:56:06;57.08;;;16.92;;
23614;SDS011;11985;49.404;7.734;2024-01-15T09:01:08;46.17;;;15.23;;
23614;SDS011;11985;49.404;7.734;2024-01-15T09:06:10;54.92;;;17.42;;
23614;SDS011;11985;49.404;7.734;2024-01-15T09:11:13;40.15;;;14.77;;
23614;SDS011;11985;49.404;7.734;2024-01-15T09:16:14;43.40;;;14.38;;
23614;SDS011;11985;49.404;7.734;2024-01-15T09:21:16;49.15;;;16.92;;
23614;SDS011;11985;49.404;7.734;2024-01-15T09:26:19;48.53;;;16.40;;
23614;SDS011;11985;49.404;7.734;2024-01-15T09:31:21;54.25;;;17.27;;
23614;SDS011;11985;49.404;7.734;2024-01-15T09:36:23;41.00;;;16.30;;
23614;SDS011;11985;49.404;7.734;2024-01-15T09:41:25;50.20;;;16.27;;
23614;SDS011;11985;49.404;7.734;2024-01-15T09:46:27;39.13;;;15.07;;
23614;SDS011;11985;49.404;7.734;2024-01-15T09:51:29;43.97;;;16.15;;
23614;SDS011;11985;49.404;7.734;2024-01-15T09:56:34;40.22;;;15.55;;
23614;SDS011;11985;49.404;7.734;2024-01-15T10:01:36;32.77;;;10.93;;
23614;SDS011;11985;49.404;7.734;2024-01-15T10:06:39;47.42;;;16.10;;
23614;SDS011;11985;49.404;7.734;2024-01-15T10:11:46;41.28;;;14.35;;
23614;SDS011;11985;49.404;7.734;2024-01-15T10:16:51;40.92;;;14.00;;
23614;SDS011;11985;49.404;7.734;2024-01-15T10:21:52;38.63;;;15.32;;
23614;SDS011;11985;49.404;7.734;2024-01-15T10:27:00;34.97;;;13.75;;
23614;SDS011;11985;49.404;7.734;2024-01-15T10:32:06;38.50;;;13.75;;
23614;SDS011;11985;49.404;7.734;2024-01-15T10:37:09;41.67;;;15.38;;
23614;SDS011;11985;49.404;7.734;2024-01-15T10:42:12;34.97;;;13.35;;
23614;SDS011;11985;49.404;7.734;2024-01-15T10:47:14;34.65;;;13.00;;
23614;SDS011;11985;49.404;7.734;2024-01-15T10:52:16;36.85;;;11.90;;
23614;SDS011;11985;49.404;7.734;2024-01-15T10:57:19;37.35;;;13.30;;
23614;SDS011;11985;49.404;7.734;2024-01-15T11:02:22;36.88;;;13.93;;
23614;SDS011;11985;49.404;7.734;2024-01-15T11:07:25;39.55;;;13.82;;
23614;SDS011;11985;49.404;7.734;2024-01-15T11:12:29;32.83;;;12.43;;
23614;SDS011;11985;49.404;7.734;2024-01-15T11:23:01;29.13;;;11.05;;
23614;SDS011;11985;49.404;7.734;2024-01-15T11:28:04;35.65;;;12.73;;
23614;SDS011;11985;49.404;7.734;2024-01-15T11:33:06;29.15;;;11.32;;
23614;SDS011;11985;49.404;7.734;2024-01-15T11:38:07;23.98;;;10.98;;
23614;SDS011;11985;49.404;7.734;2024-01-15T11:43:13;32.45;;;11.43;;
23614;SDS011;11985;49.404;7.734;2024-01-15T11:48:17;26.75;;;11.70;;
23614;SDS011;11985;49.404;7.734;2024-01-15T11:53:27;26.20;;;11.48;;
23614;SDS011;11985;49.404;7.734;2024-01-15T11:58:36;27.85;;;11.05;;
23614;SDS011;11985;49.404;7.734;2024-01-15T12:03:37;27.13;;;10.88;;
23614;SDS011;11985;49.404;7.734;2024-01-15T12:08:39;25.52;;;10.70;;
23614;SDS011;11985;49.404;7.734;2024-01-15T12:13:42;31.15;;;11.68;;
23614;SDS011;11985;49.404;7.734;2024-01-15T12:18:43;29.20;;;12.23;;
23614;SDS011;11985;49.404;7.734;2024-01-15T12:23:45;32.47;;;12.68;;
23614;SDS011;11985;49.404;7.734;2024-01-15T12:28:50;31.13;;;13.25;;
23614;SDS011;11985;49.404;7.734;2024-01-15T12:33:52;55.60;;;21.33;;
23614;SDS011;11985;49.404;7.734;2024-01-15T12:38:53;26.15;;;11.00;;
23614;SDS011;11985;49.404;7.734;2024-01-15T12:44:01;24.48;;;10.73;;
23614;SDS011;11985;49.404;7.734;2024-01-15T12:49:05;23.23;;;10.52;;
23614;SDS011;11985;49.404;7.734;2024-01-15T12:54:08;22.67;;;10.43;;
23614;SDS011;11985;49.404;7.734;2024-01-15T12:59:12;25.52;;;10.07;;
23614;SDS011;11985;49.404;7.734;2024-01-15T13:04:20;23.08;;;10.27;;
23614;SDS011;11985;49.404;7.734;2024-01-15T13:09:24;20.15;;;8.07;;
23614;SDS011;11985;49.404;7.734;2024-01-15T13:14:27;22.70;;;9.82;;
23614;SDS011;11985;49.404;7.734;2024-01-15T13:19:29;19.42;;;8.52;;
23614;SDS011;11985;49.404;7.734;2024-01-15T13:24:34;25.67;;;9.57;;
23614;SDS011;11985;49.404;7.734;2024-01-15T13:29:37;22.65;;;10.35;;
23614;SDS011;11985;49.404;7.734;2024-01-15T13:34:39;21.75;;;9.45;;
23614;SDS011;11985;49.404;7.734;2024-01-15T13:39:46;26.25;;;9.93;;
23614;SDS011;11985;49.404;7.734;2024-01-15T13:44:49;24.23;;;11.07;;
23614;SDS011;11985;49.404;7.734;2024-01-15T13:49:51;23.55;;;10.05;;
23614;SDS011;11985;49.404;7.734;2024-01-15T13:54:52;20.08;;;10.48;;
23614;SDS011;11985;49.404;7.734;2024-01-15T13:59:55;24.27;;;10.25;;
23614;SDS011;11985;49.404;7.734;2024-01-15T14:04:57;22.17;;;12.20;;
23614;SDS011;11985;49.404;7.734;2024-01-15T14:09:58;16.70;;;8.77;;
23614;SDS011;11985;49.404;7.734;2024-01-15T14:15:02;19.92;;;8.10;;
23614;SDS011;11985;49.404;7.734;2024-01-15T14:20:06;26.92;;;8.20;;
23614;SDS011;11985;49.404;7.734;2024-01-15T14:25:10;22.42;;;8.40;;
23614;SDS011;11985;49.404;7.734;2024-01-15T14:30:13;16.73;;;8.52;;
23614;SDS011;11985;49.404;7.734;2024-01-15T14:35:15;17.10;;;7.93;;
23614;SDS011;11985;49.404;7.734;2024-01-15T14:40:17;23.20;;;9.38;;
23614;SDS011;11985;49.404;7.734;2024-01-15T14:45:20;17.88;;;8.07;;
23614;SDS011;11985;49.404;7.734;2024-01-15T14:50:22;20.67;;;8.70;;
23614;SDS011;11985;49.404;7.734;2024-01-15T14:55:23;17.75;;;7.90;;
23614;SDS011;11985;49.404;7.734;2024-01-15T15:00:26;19.98;;;8.88;;
23614;SDS011;11985;49.404;7.734;2024-01-15T15:05:28;17.23;;;7.57;;
23614;SDS011;11985;49.404;7.734;2024-01-15T15:10:30;17.85;;;7.95;;
23614;SDS011;11985;49.404;7.734;2024-01-15T15:15:33;18.13;;;8.20;;
23614;SDS011;11985;49.404;7.734;2024-01-15T15:20:34;17.67;;;8.05;;
23614;SDS011;11985;49.404;7.734;2024-01-15T15:25:36;21.83;;;10.35;;
23614;SDS011;11985;49.404;7.734;2024-01-15T15:30:39;18.35;;;7.50;;
23614;SDS011;11985;49.404;7.734;2024-01-15T15:35:41;18.20;;;7.85;;
23614;SDS011;11985;49.404;7.734;2024-01-15T15:40:44;16.05;;;7.05;;
23614;SDS011;11985;49.404;7.734;2024-01-15T15:45:47;17.40;;;7.15;;
23614;SDS011;11985;49.404;7.734;2024-01-15T15:50:49;16.10;;;6.50;;
23614;SDS011;11985;49.404;7.734;2024-01-15T15:55:51;15.63;;;7.65;;
23614;SDS011;11985;49.404;7.734;2024-01-15T16:00:54;18.10;;;7.18;;
23614;SDS011;11985;49.404;7.734;2024-01-15T16:05:59;27.58;;;10.15;;
23614;SDS011;11985;49.404;7.734;2024-01-15T16:11:00;17.65;;;6.93;;
23614;SDS011;11985;49.404;7.734;2024-01-15T16:16:04;19.17;;;7.20;;
23614;SDS011;11985;49.404;7.734;2024-01-15T16:21:05;16.67;;;6.32;;
23614;SDS011;11985;49.404;7.734;2024-01-15T16:26:07;20.35;;;6.78;;
23614;SDS011;11985;49.404;7.734;2024-01-15T16:31:10;16.75;;;7.10;;
23614;SDS011;11985;49.404;7.734;2024-01-15T16:36:12;19.45;;;6.35;;
23614;SDS011;11985;49.404;7.734;2024-01-15T16:41:13;17.17;;;7.60;;
23614;SDS011;11985;49.404;7.734;2024-01-15T16:46:16;17.45;;;7.15;;
23614;SDS011;11985;49.404;7.734;2024-01-15T16:51:17;18.92;;;6.63;;
23614;SDS011;11985;49.404;7.734;2024-01-15T16:56:19;22.42;;;7.63;;
23614;SDS011;11985;49.404;7.734;2024-01-15T17:01:22;15.65;;;7.20;;
23614;SDS011;11985;49.404;7.734;2024-01-15T17:06:24;14.60;;;6.57;;
23614;SDS011;11985;49.404;7.734;2024-01-15T17:11:25;16.38;;;6.90;;
23614;SDS011;11985;49.404;7.734;2024-01-15T17:16:29;16.33;;;7.18;;
23614;SDS011;11985;49.404;7.734;2024-01-15T17:21:30;19.75;;;7.88;;
23614;SDS011;11985;49.404;7.734;2024-01-15T17:26:35;16.33;;;7.10;;
23614;SDS011;11985;49.404;7.734;2024-01-15T17:31:38;16.67;;;6.63;;
23614;SDS011;11985;49.404;7.734;2024-01-15T17:36:39;13.10;;;6.15;;
23614;SDS011;11985;49.404;7.734;2024-01-15T17:41:41;15.05;;;6.32;;
23614;SDS011;11985;49.404;7.734;2024-01-15T17:46:44;13.07;;;6.38;;
23614;SDS011;11985;49.404;7.734;2024-01-15T17:51:46;13.07;;;6.05;;
23614;SDS011;11985;49.404;7.734;2024-01-15T17:56:48;18.27;;;6.68;;
23614;SDS011;11985;49.404;7.734;2024-01-15T18:01:51;10.48;;;4.80;;
23614;SDS011;11985;49.404;7.734;2024-01-15T18:11:57;7.53;;;3.80;;
23614;SDS011;11985;49.404;7.734;2024-01-15T18:17:04;8.25;;;4.10;;
23614;SDS011;11985;49.404;7.734;2024-01-15T18:22:05;9.52;;;4.70;;
23614;SDS011;11985;49.404;7.734;2024-01-15T18:27:07;10.43;;;4.05;;
23614;SDS011;11985;49.404;7.734;2024-01-15T18:32:10;8.77;;;4.22;;
23614;SDS011;11985;49.404;7.734;2024-01-15T18:37:12;11.43;;;4.35;;
23614;SDS011;11985;49.404;7.734;2024-01-15T18:42:13;7.65;;;3.50;;
23614;SDS011;11985;49.404;7.734;2024-01-15T18:47:16;9.55;;;3.40;;
23614;SDS011;11985;49.404;7.734;2024-01-15T18:52:19;6.68;;;3.40;;
23614;SDS011;11985;49.404;7.734;2024-01-15T18:57:21;14.02;;;4.20;;
23614;SDS011;11985;49.404;7.734;2024-01-15T19:02:24;7.97;;;3.10;;
23614;SDS011;11985;49.404;7.734;2024-01-15T19:07:26;8.23;;;3.08;;
23614;SDS011;11985;49.404;7.734;2024-01-15T19:12:27;9.85;;;3.10;;
23614;SDS011;11985;49.404;7.734;2024-01-15T19:17:30;9.75;;;3.38;;
23614;SDS011;11985;49.404;7.734;2024-01-15T19:22:32;8.30;;;2.75;;
23614;SDS011;11985;49.404;7.734;2024-01-15T19:27:33;11.27;;;3.28;;
23614;SDS011;11985;49.404;7.734;2024-01-15T19:32:37;6.15;;;3.22;;
23614;SDS011;11985;49.404;7.734;2024-01-15T19:37:40;8.32;;;3.10;;
23614;SDS011;11985;49.404;7.734;2024-01-15T19:42:42;8.05;;;3.03;;
23614;SDS011;11985;49.404;7.734;2024-01-15T19:47:45;11.43;;;4.72;;
23614;SDS011;11985;49.404;7.734;2024-01-15T19:52:47;12.73;;;3.58;;
23614;SDS011;11985;49.404;7.734;2024-01-15T19:57:48;8.52;;;3.53;;
23614;SDS011;11985;49.404;7.734;2024-01-15T20:02:52;7.80;;;3.05;;
23614;SDS011;11985;49.404;7.734;2024-01-15T20:12:56;7.07;;;3.45;;
23614;SDS011;11985;49.404;7.734;2024-01-15T20:17:59;8.10;;;3.70;;
23614;SDS011;11985;49.404;7.734;2024-01-15T20:23:00;9.88;;;3.10;;
23614;SDS011;11985;49.404;7.734;2024-01-15T20:28:02;7.45;;;3.25;;
23614;SDS011;11985;49.404;7.734;2024-01-15T20:33:07;6.53;;;2.47;;
23614;SDS011;11985;49.404;7.734;2024-01-15T20:38:12;7.55;;;3.28;;
23614;SDS011;11985;49.404;7.734;2024-01-15T20:43:13;12.82;;;4.28;;
23614;SDS011;11985;49.404;7.734;2024-01-15T20:48:16;6.78;;;3.80;;
23614;SDS011;11985;49.404;7.734;2024-01-15T20:53:18;11.05;;;4.32;;
23614;SDS011;11985;49.404;7.734;2024-01-15T20:58:24;9.13;;;3.40;;
23614;SDS011;11985;49.404;7.734;2024-01-15T21:03:27;9.13;;;3.75;;
23614;SDS011;11985;49.404;7.734;2024-01-15T21:08:30;7.97;;;3.40;;
23614;SDS011;11985;49.404;7.734;2024-01-15T21:13:33;12.25;;;3.88;;
23614;SDS011;11985;49.404;7.734;2024-01-15T21:18:36;8.13;;;4.00;;
23614;SDS011;11985;49.404;7.734;2024-01-15T21:23:38;10.70;;;3.80;;
23614;SDS011;11985;49.404;7.734;2024-01-15T21:28:40;9.43;;;3.75;;
23614;SDS011;11985;49.404;7.734;2024-01-15T21:33:43;11.70;;;4.57;;
23614;SDS011;11985;49.404;7.734;2024-01-15T21:38:46;9.20;;;4.73;;
23614;SDS011;11985;49.404;7.734;2024-01-15T21:43:51;8.77;;;4.00;;
23614;SDS011;11985;49.404;7.734;2024-01-15T21:48:54;6.50;;;3.70;;
23614;SDS011;11985;49.404;7.734;2024-01-15T21:53:56;12.10;;;3.83;;
23614;SDS011;11985;49.404;7.734;2024-01-15T21:58:58;13.30;;;4.03;;
23614;SDS011;11985;49.404;7.734;2024-01-15T22:04:01;11.32;;;3.90;;
23614;SDS011;11985;49.404;7.734;2024-01-15T22:09:03;9.00;;;4.22;;
23614;SDS011;11985;49.404;7.734;2024-01-15T22:14:04;11.50;;;4.13;;
23614;SDS011;11985;49.404;7.734;2024-01-15T22:19:07;6.82;;;3.42;;
23614;SDS011;11985;49.404;7.734;2024-01-15T22:24:09;6.57;;;3.80;;
23614;SDS011;11985;49.404;7.734;2024-01-15T22:29:10;8.15;;;3.85;;
23614;SDS011;11985;49.404;7.734;2024-01-15T22:34:13;9.70;;;3.72;;
23614;SDS011;11985;49.404;7.734;2024-01-15T22:39:17;6.97;;;3.72;;
23614;SDS011;11985;49.404;7.734;2024-01-15T22:44:18;8.27;;;3.42;;
23614;SDS011;11985;49.404;7.734;2024-01-15T22:49:21;9.05;;;4.47;;
23614;SDS011;11985;49.404;7.734;2024-01-15T22:54:23;11.38;;;4.22;;
23614;SDS011;11985;49.404;7.734;2024-01-15T22:59:24;8.30;;;3.72;;
23614;SDS011;11985;49.404;7.734;2024-01-15T23:04:27;5.70;;;3.33;;
23614;SDS011;11985;49.404;7.734;2024-01-15T23:09:29;10.38;;;4.60;;
23614;SDS011;11985;49.404;7.734;2024-01-15T23:14:31;8.00;;;4.30;;
23614;SDS011;11985;49.404;7.734;2024-01-15T23:19:34;11.57;;;4.28;;
23614;SDS011;11985;49.404;7.734;2024-01-15T23:24:35;11.07;;;4.35;;
23614;SDS011;11985;49.404;7.734;2024-01-15T23:29:37;13.32;;;4.90;;
23614;SDS011;11985;49.404;7.734;2024-01-15T23:34:39;9.88;;;4.55;;
23614;SDS011;11985;49.404;7.734;2024-01-15T23:39:41;11.30;;;4.65;;
23614;SDS011;11985;49.404;7.734;2024-01-15T23:44:43;12.07;;;5.18;;
23614;SDS011;11985;49.404;7.734;2024-01-15T23:49:46;12.35;;;5.25;;
23614;SDS011;11985;49.404;7.734;2024-01-15T23:54:47;13.85;;;4.80;;
23614;SDS011;11985;49.404;7.734;2024-01-15T23:59:54;13.00;;;5.55;;
